Plant City, FL

9:04 PM EDT on September 21, 2014 (GMT -0400)
Vandenberg | Change Station
CLOSE
Current Station
Airport
Location: Tampa Executive,
Elevation: 23 ft
Nearby Weather Stations
Active Advisory: Flood Warning

Elev 23 ft 28.02 °N, 82.34 °W | Updated 9 minutes ago

Overcast
Overcast
79 °F
Feels Like 79 °F
N
0
Wind Variable Wind from North

Today
High -- | Low -- °F
--% Chance of Precip.
Yesterday
High -- | Low -- °F
Precip. -- in
7:16 AM 7:26 PM
Waning Crescent, 5% visible
Pressure 29.99 in
Visibility 10.0 miles
Clouds Scattered Clouds 8000 ft
Dew Point 73 °F
Humidity 83%
Rainfall 0.25 in
Snow Depth Not available.
UV 0 out of 12
Pollen 5.60 out of 12
Air Quality Not available.
Flu Activity Not available.
METAR KVDF 220055Z AUTO 00000KT 10SM SCT080 26/23 A2999 RMK AO2 P0001

More Conditions Fewer Conditions

Pressure 29.99 in
Visibility 10.0 miles
Clouds Scattered Clouds 8000 ft
Dew Point 73 °F
Humidity 83%
Rainfall 0.25 in
Snow Depth Not available.
UV 0 out of 12
Pollen 5.60 out of 12
Air Quality Not available.
Flu Activity Not available.
METAR KVDF 220055Z AUTO 00000KT 10SM SCT080 26/23 A2999 RMK AO2 P0001

More Conditions Fewer Conditions

10-Day Weather Forecast

Almanac

Astronomy

Sep. 21, 2014 Rise Set
Actual Time 7:16 AM EDT 7:26 PM EDT
Civil Twilight 6:53 AM EDT 7:49 PM EDT
Nautical Twilight 6:25 AM EDT 8:16 PM EDT
Astronomical Twilight 5:58 AM EDT 8:44 PM EDT
Moon 4:58 AM EDT (9/21) 5:54 PM EDT (9/21)
Length of Visible Light 12h 56m
Length of Day
12h 09m
Tomorrow will be 1m 39s shorter.
Waning Crescent, 5% of the Moon is Illuminated
Today
Waning Crescent
Sep 24
New
Oct 1
First Quarter
Oct 8
Full
Oct 15
Last Quarter

Today's Extremes

State Highs State Lows

Community

WunderPhotos

Upload Photos

1,755,324 photos uploaded!

WunderBlogs® & News

Nearby

Snow Depth

Station Depth Elevation
No new snow has been reported.

Earthquake Activity

City Distance Mag. Time & Date
No recent earthquake activity has been reported nearby.
Minimum magnitude displayed is 2.5.

Coastal Water Temperatures

Place Temperature
St Petersburg, FL 84.9 °F
Old Port Tampa, FL 84.0 °F

Nearby Weather Stations